sensor_id;sensor_type;location;lat;lon;timestamp;pressure;altitude;pressure_sealevel;temperature;humidity
75051;BME280;63628;47.656;11.310;2023-04-03T00:01:59;95260.88;;;8.92;68.70
75051;BME280;63628;47.656;11.310;2023-04-03T00:04:26;95266.38;;;8.90;69.02
75051;BME280;63628;47.656;11.310;2023-04-03T00:06:54;95260.69;;;8.93;68.93
75051;BME280;63628;47.656;11.310;2023-04-03T00:09:21;95263.09;;;8.95;68.78
75051;BME280;63628;47.656;11.310;2023-04-03T00:11:47;95257.81;;;8.95;68.43
75051;BME280;63628;47.656;11.310;2023-04-03T00:14:14;95254.59;;;8.93;68.38
75051;BME280;63628;47.656;11.310;2023-04-03T00:16:41;95260.50;;;8.88;68.33
75051;BME280;63628;47.656;11.310;2023-04-03T00:19:07;95262.31;;;8.87;68.72
75051;BME280;63628;47.656;11.310;2023-04-03T00:21:34;95250.56;;;8.83;68.54
75051;BME280;63628;47.656;11.310;2023-04-03T00:24:02;95248.16;;;8.82;68.53
75051;BME280;63628;47.656;11.310;2023-04-03T00:26:29;95251.81;;;8.81;68.93
75051;BME280;63628;47.656;11.310;2023-04-03T00:28:55;95252.41;;;8.83;68.45
75051;BME280;63628;47.656;11.310;2023-04-03T00:31:22;95250.78;;;8.82;68.85
75051;BME280;63628;47.656;11.310;2023-04-03T00:33:49;95246.75;;;8.79;68.88
75051;BME280;63628;47.656;11.310;2023-04-03T00:36:16;95252.63;;;8.81;68.21
75051;BME280;63628;47.656;11.310;2023-04-03T00:38:42;95256.69;;;8.77;68.58
75051;BME280;63628;47.656;11.310;2023-04-03T00:41:10;95256.91;;;8.76;68.23
75051;BME280;63628;47.656;11.310;2023-04-03T00:43:37;95255.69;;;8.72;69.15
75051;BME280;63628;47.656;11.310;2023-04-03T00:46:04;95251.06;;;8.67;68.36
75051;BME280;63628;47.656;11.310;2023-04-03T00:48:32;95256.09;;;8.75;68.75
75051;BME280;63628;47.656;11.310;2023-04-03T00:50:59;95250.81;;;8.75;68.00
75051;BME280;63628;47.656;11.310;2023-04-03T00:53:29;95250.00;;;8.75;67.86
75051;BME280;63628;47.656;11.310;2023-04-03T00:55:58;95242.13;;;8.68;68.46
75051;BME280;63628;47.656;11.310;2023-04-03T00:58:33;95255.09;;;8.70;68.36
75051;BME280;63628;47.656;11.310;2023-04-03T01:01:05;95248.41;;;8.67;68.33
75051;BME280;63628;47.656;11.310;2023-04-03T01:03:33;95249.22;;;8.68;68.50
75051;BME280;63628;47.656;11.310;2023-04-03T01:06:00;95247.19;;;8.70;68.09
75051;BME280;63628;47.656;11.310;2023-04-03T01:08:27;95246.19;;;8.64;68.10
75051;BME280;63628;47.656;11.310;2023-04-03T01:10:53;95249.84;;;8.63;68.04
75051;BME280;63628;47.656;11.310;2023-04-03T01:13:24;95255.94;;;8.64;68.62
75051;BME280;63628;47.656;11.310;2023-04-03T01:15:52;95250.44;;;8.65;68.13
75051;BME280;63628;47.656;11.310;2023-04-03T01:18:20;95251.28;;;8.59;67.87
75051;BME280;63628;47.656;11.310;2023-04-03T01:21:09;95241.75;;;8.58;68.12
75051;BME280;63628;47.656;11.310;2023-04-03T01:23:52;95248.03;;;8.57;68.05
75051;BME280;63628;47.656;11.310;2023-04-03T01:26:24;95245.63;;;8.55;68.01
75051;BME280;63628;47.656;11.310;2023-04-03T01:28:53;95250.47;;;8.58;67.98
75051;BME280;63628;47.656;11.310;2023-04-03T01:31:25;95243.59;;;8.57;68.20
75051;BME280;63628;47.656;11.310;2023-04-03T01:33:55;95249.47;;;8.53;68.18
75051;BME280;63628;47.656;11.310;2023-04-03T01:36:23;95239.56;;;8.48;68.01
75051;BME280;63628;47.656;11.310;2023-04-03T01:38:51;95250.28;;;8.53;67.58
75051;BME280;63628;47.656;11.310;2023-04-03T01:41:18;95244.22;;;8.46;68.21
75051;BME280;63628;47.656;11.310;2023-04-03T01:43:47;95246.22;;;8.44;68.31
75051;BME280;63628;47.656;11.310;2023-04-03T01:46:14;95245.63;;;8.42;68.14
75051;BME280;63628;47.656;11.310;2023-04-03T01:48:41;95243.00;;;8.42;68.55
75051;BME280;63628;47.656;11.310;2023-04-03T01:51:09;95244.00;;;8.41;68.19
75051;BME280;63628;47.656;11.310;2023-04-03T01:53:36;95234.91;;;8.37;68.39
75051;BME280;63628;47.656;11.310;2023-04-03T01:56:03;95244.03;;;8.35;68.32
75051;BME280;63628;47.656;11.310;2023-04-03T01:58:29;95234.50;;;8.34;68.96
75051;BME280;63628;47.656;11.310;2023-04-03T02:00:56;95235.09;;;8.36;68.50
75051;BME280;63628;47.656;11.310;2023-04-03T02:03:23;95235.09;;;8.36;68.19
75051;BME280;63628;47.656;11.310;2023-04-03T02:05:49;95228.00;;;8.30;68.29
75051;BME280;63628;47.656;11.310;2023-04-03T02:08:17;95232.06;;;8.39;67.93
75051;BME280;63628;47.656;11.310;2023-04-03T02:10:44;95234.69;;;8.32;68.54
75051;BME280;63628;47.656;11.310;2023-04-03T02:13:12;95228.41;;;8.33;68.01
75051;BME280;63628;47.656;11.310;2023-04-03T02:15:40;95217.84;;;8.26;68.42
75051;BME280;63628;47.656;11.310;2023-04-03T02:18:07;95224.53;;;8.29;68.13
75051;BME280;63628;47.656;11.310;2023-04-03T02:20:34;95223.94;;;8.34;67.55
75051;BME280;63628;47.656;11.310;2023-04-03T02:23:01;95219.50;;;8.34;68.32
75051;BME280;63628;47.656;11.310;2023-04-03T02:25:31;95210.38;;;8.23;68.04
75051;BME280;63628;47.656;11.310;2023-04-03T02:27:58;95220.88;;;8.30;67.67
75051;BME280;63628;47.656;11.310;2023-04-03T02:30:25;95228.22;;;8.21;68.48
75051;BME280;63628;47.656;11.310;2023-04-03T02:32:51;95223.34;;;8.18;68.31
75051;BME280;63628;47.656;11.310;2023-04-03T02:35:18;95222.34;;;8.19;68.43
75051;BME280;63628;47.656;11.310;2023-04-03T02:37:45;95219.09;;;8.17;67.94
75051;BME280;63628;47.656;11.310;2023-04-03T02:40:11;95219.31;;;8.16;68.55
75051;BME280;63628;47.656;11.310;2023-04-03T02:42:39;95215.25;;;8.13;68.35
75051;BME280;63628;47.656;11.310;2023-04-03T02:45:07;95221.13;;;8.15;68.23
75051;BME280;63628;47.656;11.310;2023-04-03T02:47:33;95221.34;;;8.14;68.23
75051;BME280;63628;47.656;11.310;2023-04-03T02:50:00;95227.03;;;8.11;68.59
75051;BME280;63628;47.656;11.310;2023-04-03T02:52:27;95223.56;;;8.17;67.69
75051;BME280;63628;47.656;11.310;2023-04-03T02:54:53;95224.19;;;8.12;68.00
75051;BME280;63628;47.656;11.310;2023-04-03T02:57:20;95218.72;;;8.07;68.40
75051;BME280;63628;47.656;11.310;2023-04-03T02:59:48;95226.41;;;8.09;68.33
75051;BME280;63628;47.656;11.310;2023-04-03T03:02:14;95231.28;;;8.05;68.34
75051;BME280;63628;47.656;11.310;2023-04-03T03:04:41;95230.69;;;8.03;68.37
75051;BME280;63628;47.656;11.310;2023-04-03T03:07:09;95230.88;;;8.08;67.88
75051;BME280;63628;47.656;11.310;2023-04-03T03:09:35;95237.59;;;8.04;68.03
75051;BME280;63628;47.656;11.310;2023-04-03T03:12:02;95234.13;;;8.04;68.27
75051;BME280;63628;47.656;11.310;2023-04-03T03:14:29;95225.84;;;8.00;68.58
75051;BME280;63628;47.656;11.310;2023-04-03T03:16:57;95226.66;;;8.01;68.52
75051;BME280;63628;47.656;11.310;2023-04-03T03:19:24;95228.88;;;7.97;68.46
75051;BME280;63628;47.656;11.310;2023-04-03T03:21:51;95223.22;;;7.93;68.54
75051;BME280;63628;47.656;11.310;2023-04-03T03:24:18;95228.06;;;7.97;68.35
75051;BME280;63628;47.656;11.310;2023-04-03T03:26:45;95220.75;;;7.99;68.19
75051;BME280;63628;47.656;11.310;2023-04-03T03:29:11;95219.75;;;8.00;68.10
75051;BME280;63628;47.656;11.310;2023-04-03T03:31:38;95225.25;;;7.91;68.38
75051;BME280;63628;47.656;11.310;2023-04-03T03:34:06;95224.84;;;7.88;68.40
75051;BME280;63628;47.656;11.310;2023-04-03T03:36:32;95223.63;;;7.90;68.47
75051;BME280;63628;47.656;11.310;2023-04-03T03:38:59;95223.03;;;7.82;68.77
75051;BME280;63628;47.656;11.310;2023-04-03T03:41:26;95216.53;;;7.51;61.43
75051;BME280;63628;47.656;11.310;2023-04-03T03:43:53;95220.38;;;7.75;68.84
75051;BME280;63628;47.656;11.310;2023-04-03T03:46:19;95223.84;;;7.82;68.43
75051;BME280;63628;47.656;11.310;2023-04-03T03:48:46;95221.41;;;7.81;68.53
75051;BME280;63628;47.656;11.310;2023-04-03T03:51:14;95222.59;;;7.78;68.47
75051;BME280;63628;47.656;11.310;2023-04-03T03:53:41;95222.38;;;7.80;68.67
75051;BME280;63628;47.656;11.310;2023-04-03T03:56:07;95210.44;;;7.71;68.86
75051;BME280;63628;47.656;11.310;2023-04-03T03:58:34;95214.28;;;7.75;68.82
75051;BME280;63628;47.656;11.310;2023-04-03T04:01:01;95230.09;;;7.75;68.42
75051;BME280;63628;47.656;11.310;2023-04-03T04:03:28;95225.84;;;7.74;68.64
75051;BME280;63628;47.656;11.310;2023-04-03T04:05:55;95220.16;;;7.77;68.38
75051;BME280;63628;47.656;11.310;2023-04-03T04:08:24;95224.81;;;7.75;68.48
75051;BME280;63628;47.656;11.310;2023-04-03T04:10:50;95219.56;;;7.75;68.57
75051;BME280;63628;47.656;11.310;2023-04-03T04:13:17;95215.28;;;7.74;68.13
75051;BME280;63628;47.656;11.310;2023-04-03T04:15:44;95222.00;;;7.70;68.46
75051;BME280;63628;47.656;11.310;2023-04-03T04:18:10;95229.69;;;7.78;68.32
75051;BME280;63628;47.656;11.310;2023-04-03T04:20:37;95223.41;;;7.72;68.28
75051;BME280;63628;47.656;11.310;2023-04-03T04:23:04;95223.22;;;7.67;68.46
75051;BME280;63628;47.656;11.310;2023-04-03T04:25:32;95217.53;;;7.63;68.61
75051;BME280;63628;47.656;11.310;2023-04-03T04:27:59;95232.94;;;7.67;68.86
75051;BME280;63628;47.656;11.310;2023-04-03T04:30:25;95224.63;;;7.63;68.39
75051;BME280;63628;47.656;11.310;2023-04-03T04:32:53;95219.16;;;7.58;68.43
75051;BME280;63628;47.656;11.310;2023-04-03T04:35:20;95230.50;;;7.65;68.46
75051;BME280;63628;47.656;11.310;2023-04-03T04:37:47;95225.63;;;7.62;68.24
75051;BME280;63628;47.656;11.310;2023-04-03T04:40:14;95228.06;;;7.57;68.98
75051;BME280;63628;47.656;11.310;2023-04-03T04:42:42;95233.75;;;7.60;68.56
75051;BME280;63628;47.656;11.310;2023-04-03T04:45:09;95227.88;;;7.58;68.59
75051;BME280;63628;47.656;11.310;2023-04-03T04:47:36;95232.53;;;7.56;68.64
75051;BME280;63628;47.656;11.310;2023-04-03T04:50:03;95234.34;;;7.56;68.49
75051;BME280;63628;47.656;11.310;2023-04-03T04:52:30;95232.53;;;7.56;68.44
75051;BME280;63628;47.656;11.310;2023-04-03T04:54:56;95238.59;;;7.57;68.30
75051;BME280;63628;47.656;11.310;2023-04-03T04:57:23;95241.03;;;7.52;68.66
75051;BME280;63628;47.656;11.310;2023-04-03T04:59:51;95219.97;;;7.39;68.84
75051;BME280;63628;47.656;11.310;2023-04-03T05:02:18;95236.19;;;7.49;68.33
75051;BME280;63628;47.656;11.310;2023-04-03T05:04:44;95241.75;;;6.93;62.02
75051;BME280;63628;47.656;11.310;2023-04-03T05:07:11;95235.06;;;6.43;65.88
75051;BME280;63628;47.656;11.310;2023-04-03T05:09:38;95242.03;;;7.18;69.81
75051;BME280;63628;47.656;11.310;2023-04-03T05:12:05;95240.84;;;7.40;68.82
75051;BME280;63628;47.656;11.310;2023-04-03T05:14:31;95239.63;;;7.36;68.62
75051;BME280;63628;47.656;11.310;2023-04-03T05:16:59;95241.44;;;7.36;68.68
75051;BME280;63628;47.656;11.310;2023-04-03T05:19:26;95244.06;;;7.42;68.53
75051;BME280;63628;47.656;11.310;2023-04-03T05:21:52;95243.84;;;7.30;68.96
75051;BME280;63628;47.656;11.310;2023-04-03T05:24:19;95244.97;;;6.95;67.73
75051;BME280;63628;47.656;11.310;2023-04-03T05:26:46;95250.50;;;7.13;69.81
75051;BME280;63628;47.656;11.310;2023-04-03T05:29:12;95250.88;;;7.04;69.14
75051;BME280;63628;47.656;11.310;2023-04-03T05:31:39;95229.28;;;7.21;68.84
75051;BME280;63628;47.656;11.310;2023-04-03T05:34:07;95248.13;;;6.23;67.27
75051;BME280;63628;47.656;11.310;2023-04-03T05:36:34;95247.47;;;7.16;69.07
75051;BME280;63628;47.656;11.310;2023-04-03T05:39:00;95251.94;;;7.22;68.83
75051;BME280;63628;47.656;11.310;2023-04-03T05:41:27;95254.69;;;6.94;65.95
75051;BME280;63628;47.656;11.310;2023-04-03T05:43:54;95253.78;;;7.28;68.40
75051;BME280;63628;47.656;11.310;2023-04-03T05:46:20;95256.00;;;7.31;68.55
75051;BME280;63628;47.656;11.310;2023-04-03T05:48:48;95253.94;;;7.14;69.04
75051;BME280;63628;47.656;11.310;2023-04-03T05:51:20;95250.75;;;7.25;68.70
75051;BME280;63628;47.656;11.310;2023-04-03T05:53:58;95248.91;;;7.25;68.61
75051;BME280;63628;47.656;11.310;2023-04-03T05:56:26;95253.13;;;7.13;68.44
75051;BME280;63628;47.656;11.310;2023-04-03T05:58:52;95253.06;;;6.93;69.31
75051;BME280;63628;47.656;11.310;2023-04-03T06:01:19;95262.53;;;6.75;70.89
75051;BME280;63628;47.656;11.310;2023-04-03T06:03:45;95256.44;;;6.67;65.49
75051;BME280;63628;47.656;11.310;2023-04-03T06:06:13;95257.50;;;6.39;71.43
75051;BME280;63628;47.656;11.310;2023-04-03T06:08:41;95260.09;;;5.97;71.77
75051;BME280;63628;47.656;11.310;2023-04-03T06:11:08;95260.91;;;5.27;69.36
75051;BME280;63628;47.656;11.310;2023-04-03T06:13:35;95261.47;;;6.28;71.70
75051;BME280;63628;47.656;11.310;2023-04-03T06:16:01;95271.03;;;4.58;73.83
75051;BME280;63628;47.656;11.310;2023-04-03T06:18:28;95265.44;;;5.40;67.77
75051;BME280;63628;47.656;11.310;2023-04-03T06:20:55;95263.34;;;6.34;68.18
75051;BME280;63628;47.656;11.310;2023-04-03T06:23:22;95258.22;;;6.60;71.03
75051;BME280;63628;47.656;11.310;2023-04-03T06:25:50;95269.38;;;5.51;67.02
75051;BME280;63628;47.656;11.310;2023-04-03T06:28:16;95262.53;;;5.28;70.64
75051;BME280;63628;47.656;11.310;2023-04-03T06:30:43;95270.22;;;5.79;70.59
75051;BME280;63628;47.656;11.310;2023-04-03T06:33:09;95265.28;;;5.69;68.67
75051;BME280;63628;47.656;11.310;2023-04-03T06:35:37;95269.41;;;6.00;72.69
75051;BME280;63628;47.656;11.310;2023-04-03T06:38:04;95273.38;;;5.25;68.46
75051;BME280;63628;47.656;11.310;2023-04-03T06:40:35;95268.00;;;6.39;71.11
75051;BME280;63628;47.656;11.310;2023-04-03T06:43:04;95263.75;;;5.32;73.27
75051;BME280;63628;47.656;11.310;2023-04-03T06:45:31;95268.25;;;6.09;71.61
75051;BME280;63628;47.656;11.310;2023-04-03T06:47:58;95260.84;;;6.26;70.37
75051;BME280;63628;47.656;11.310;2023-04-03T06:50:24;95273.06;;;4.77;70.30
75051;BME280;63628;47.656;11.310;2023-04-03T06:52:51;95282.63;;;3.67;74.01
75051;BME280;63628;47.656;11.310;2023-04-03T06:55:18;95274.38;;;4.08;73.49
75051;BME280;63628;47.656;11.310;2023-04-03T06:57:44;95273.44;;;5.32;74.18
75051;BME280;63628;47.656;11.310;2023-04-03T07:00:14;95271.22;;;5.99;71.83
75051;BME280;63628;47.656;11.310;2023-04-03T07:02:41;95281.13;;;6.32;67.63
75051;BME280;63628;47.656;11.310;2023-04-03T07:05:07;95280.22;;;5.05;69.89
75051;BME280;63628;47.656;11.310;2023-04-03T07:07:35;95287.47;;;5.03;74.82
75051;BME280;63628;47.656;11.310;2023-04-03T07:10:02;95288.63;;;4.50;71.77
75051;BME280;63628;47.656;11.310;2023-04-03T07:12:29;95293.44;;;4.31;74.83
75051;BME280;63628;47.656;11.310;2023-04-03T07:14:56;95305.81;;;3.02;78.99
75051;BME280;63628;47.656;11.310;2023-04-03T07:17:24;95304.19;;;3.32;76.86
75051;BME280;63628;47.656;11.310;2023-04-03T07:19:51;95302.66;;;2.83;78.49
75051;BME280;63628;47.656;11.310;2023-04-03T07:22:18;95312.84;;;3.01;80.21
75051;BME280;63628;47.656;11.310;2023-04-03T07:24:45;95304.09;;;4.59;78.18
75051;BME280;63628;47.656;11.310;2023-04-03T07:27:12;95305.16;;;3.54;76.35
75051;BME280;63628;47.656;11.310;2023-04-03T07:29:39;95303.00;;;2.80;80.53
75051;BME280;63628;47.656;11.310;2023-04-03T07:32:06;95301.44;;;2.71;79.19
75051;BME280;63628;47.656;11.310;2023-04-03T07:34:35;95314.09;;;2.82;80.37
75051;BME280;63628;47.656;11.310;2023-04-03T07:37:02;95315.28;;;3.03;78.68
75051;BME280;63628;47.656;11.310;2023-04-03T07:39:29;95311.63;;;3.43;79.93
75051;BME280;63628;47.656;11.310;2023-04-03T07:41:55;95309.25;;;3.02;78.52
75051;BME280;63628;47.656;11.310;2023-04-03T07:44:22;95312.34;;;3.89;74.53
75051;BME280;63628;47.656;11.310;2023-04-03T07:46:49;95319.03;;;3.08;77.88
75051;BME280;63628;47.656;11.310;2023-04-03T07:49:17;95319.81;;;3.77;76.92
75051;BME280;63628;47.656;11.310;2023-04-03T07:51:45;95321.53;;;3.70;77.18
75051;BME280;63628;47.656;11.310;2023-04-03T07:54:13;95313.72;;;2.63;79.74
75051;BME280;63628;47.656;11.310;2023-04-03T07:56:39;95316.53;;;3.61;79.50
75051;BME280;63628;47.656;11.310;2023-04-03T07:59:06;95322.13;;;3.35;78.03
75051;BME280;63628;47.656;11.310;2023-04-03T08:01:33;95317.66;;;3.43;77.59
75051;BME280;63628;47.656;11.310;2023-04-03T08:04:00;95315.09;;;3.35;76.66
75051;BME280;63628;47.656;11.310;2023-04-03T08:06:27;95321.09;;;3.44;79.03
75051;BME280;63628;47.656;11.310;2023-04-03T08:09:13;95322.94;;;3.96;76.59
75051;BME280;63628;47.656;11.310;2023-04-03T08:11:41;95316.63;;;3.90;77.60
75051;BME280;63628;47.656;11.310;2023-04-03T08:14:07;95327.25;;;3.51;78.67
75051;BME280;63628;47.656;11.310;2023-04-03T08:16:34;95301.03;;;4.70;73.65
75051;BME280;63628;47.656;11.310;2023-04-03T08:19:01;95318.97;;;3.62;77.16
75051;BME280;63628;47.656;11.310;2023-04-03T08:21:28;95329.53;;;3.00;77.45
75051;BME280;63628;47.656;11.310;2023-04-03T08:23:54;95324.22;;;3.62;76.83
75051;BME280;63628;47.656;11.310;2023-04-03T08:26:22;95329.81;;;3.05;77.74
75051;BME280;63628;47.656;11.310;2023-04-03T08:28:49;95335.34;;;3.10;78.09
75051;BME280;63628;47.656;11.310;2023-04-03T08:31:18;95328.78;;;3.14;78.62
75051;BME280;63628;47.656;11.310;2023-04-03T08:33:45;95330.56;;;2.91;77.62
75051;BME280;63628;47.656;11.310;2023-04-03T08:36:20;95325.75;;;3.34;76.08
75051;BME280;63628;47.656;11.310;2023-04-03T08:38:47;95326.28;;;2.98;76.85
75051;BME280;63628;47.656;11.310;2023-04-03T08:41:16;95323.88;;;4.03;75.70
75051;BME280;63628;47.656;11.310;2023-04-03T08:43:56;95325.50;;;4.04;74.36
75051;BME280;63628;47.656;11.310;2023-04-03T08:46:28;95333.63;;;3.71;75.57
75051;BME280;63628;47.656;11.310;2023-04-03T08:48:58;95324.16;;;4.37;77.29
75051;BME280;63628;47.656;11.310;2023-04-03T08:51:26;95332.16;;;3.92;75.74
75051;BME280;63628;47.656;11.310;2023-04-03T08:53:56;95324.09;;;3.56;76.69
75051;BME280;63628;47.656;11.310;2023-04-03T08:56:26;95328.06;;;4.56;73.10
75051;BME280;63628;47.656;11.310;2023-04-03T08:58:57;95329.28;;;4.16;74.71
75051;BME280;63628;47.656;11.310;2023-04-03T09:01:26;95328.66;;;3.76;74.50
75051;BME280;63628;47.656;11.310;2023-04-03T09:03:54;95329.63;;;3.38;77.40
75051;BME280;63628;47.656;11.310;2023-04-03T09:06:22;95331.56;;;3.13;75.19
75051;BME280;63628;47.656;11.310;2023-04-03T09:08:56;95336.75;;;3.21;77.27
75051;BME280;63628;47.656;11.310;2023-04-03T09:11:36;95330.34;;;3.24;77.53
75051;BME280;63628;47.656;11.310;2023-04-03T09:14:15;95337.56;;;3.67;75.34
75051;BME280;63628;47.656;11.310;2023-04-03T09:16:53;95338.97;;;3.55;76.37
75051;BME280;63628;47.656;11.310;2023-04-03T09:19:25;95341.63;;;3.24;76.53
75051;BME280;63628;47.656;11.310;2023-04-03T09:21:56;95337.06;;;3.26;75.16
75051;BME280;63628;47.656;11.310;2023-04-03T09:24:23;95338.13;;;3.40;75.17
75051;BME280;63628;47.656;11.310;2023-04-03T09:26:53;95331.84;;;3.49;75.09
75051;BME280;63628;47.656;11.310;2023-04-03T09:29:24;95332.16;;;3.69;73.89
75051;BME280;63628;47.656;11.310;2023-04-03T09:31:56;95334.16;;;3.44;75.17
75051;BME280;63628;47.656;11.310;2023-04-03T09:34:25;95337.31;;;3.39;76.65
75051;BME280;63628;47.656;11.310;2023-04-03T09:36:53;95330.00;;;3.72;74.04
75051;BME280;63628;47.656;11.310;2023-04-03T09:39:22;95332.91;;;4.15;74.13
75051;BME280;63628;47.656;11.310;2023-04-03T09:41:58;95331.03;;;4.38;71.99
75051;BME280;63628;47.656;11.310;2023-04-03T09:44:29;95334.22;;;3.59;73.56
75051;BME280;63628;47.656;11.310;2023-04-03T09:46:56;95333.34;;;3.66;72.47
75051;BME280;63628;47.656;11.310;2023-04-03T09:49:23;95328.81;;;3.60;73.74
75051;BME280;63628;47.656;11.310;2023-04-03T09:51:50;95331.81;;;3.72;73.67
75051;BME280;63628;47.656;11.310;2023-04-03T09:54:32;95325.41;;;3.74;73.87
75051;BME280;63628;47.656;11.310;2023-04-03T09:57:04;95327.25;;;3.89;74.54
75051;BME280;63628;47.656;11.310;2023-04-03T09:59:34;95329.63;;;3.98;73.13
75051;BME280;63628;47.656;11.310;2023-04-03T10:02:03;95331.84;;;4.24;73.78
75051;BME280;63628;47.656;11.310;2023-04-03T10:04:38;95329.66;;;4.13;73.95
75051;BME280;63628;47.656;11.310;2023-04-03T10:07:30;95323.97;;;4.24;73.00
75051;BME280;63628;47.656;11.310;2023-04-03T10:09:59;95325.59;;;4.10;74.36
75051;BME280;63628;47.656;11.310;2023-04-03T10:12:27;95325.97;;;4.37;73.18
75051;BME280;63628;47.656;11.310;2023-04-03T10:14:57;95320.72;;;4.22;71.92
75051;BME280;63628;47.656;11.310;2023-04-03T10:17:26;95325.69;;;4.17;70.88
75051;BME280;63628;47.656;11.310;2023-04-03T10:20:02;95323.69;;;4.34;72.39
75051;BME280;63628;47.656;11.310;2023-04-03T10:22:36;95323.69;;;4.34;71.53
75051;BME280;63628;47.656;11.310;2023-04-03T10:25:14;95321.44;;;4.31;72.47
75051;BME280;63628;47.656;11.310;2023-04-03T10:27:51;95325.59;;;4.25;73.78
75051;BME280;63628;47.656;11.310;2023-04-03T10:30:30;95322.53;;;4.36;71.92
75051;BME280;63628;47.656;11.310;2023-04-03T10:33:06;95321.34;;;4.24;71.06
75051;BME280;63628;47.656;11.310;2023-04-03T10:35:44;95319.25;;;4.05;71.00
75051;BME280;63628;47.656;11.310;2023-04-03T10:38:19;95318.41;;;3.90;71.27
75051;BME280;63628;47.656;11.310;2023-04-03T10:40:55;95319.63;;;4.02;72.33
75051;BME280;63628;47.656;11.310;2023-04-03T10:43:29;95313.84;;;4.36;72.16
75051;BME280;63628;47.656;11.310;2023-04-03T10:46:04;95312.50;;;4.25;71.07
75051;BME280;63628;47.656;11.310;2023-04-03T10:48:43;95316.09;;;4.09;70.40
75051;BME280;63628;47.656;11.310;2023-04-03T10:51:25;95310.88;;;4.09;71.58
75051;BME280;63628;47.656;11.310;2023-04-03T10:53:57;95323.31;;;4.07;72.45
75051;BME280;63628;47.656;11.310;2023-04-03T10:56:31;95313.56;;;4.01;70.51
75051;BME280;63628;47.656;11.310;2023-04-03T10:59:13;95315.13;;;4.25;71.79
75051;BME280;63628;47.656;11.310;2023-04-03T11:01:50;95313.41;;;4.32;71.11
75051;BME280;63628;47.656;11.310;2023-04-03T11:04:19;95314.66;;;4.36;70.18
75051;BME280;63628;47.656;11.310;2023-04-03T11:06:50;95305.81;;;4.23;70.90
75051;BME280;63628;47.656;11.310;2023-04-03T11:09:22;95310.78;;;4.03;72.27
75051;BME280;63628;47.656;11.310;2023-04-03T11:11:54;95312.03;;;3.92;69.36
75051;BME280;63628;47.656;11.310;2023-04-03T11:14:26;95313.03;;;3.68;69.21
75051;BME280;63628;47.656;11.310;2023-04-03T11:17:05;95318.75;;;3.49;68.97
75051;BME280;63628;47.656;11.310;2023-04-03T11:19:39;95317.94;;;3.48;69.01
75051;BME280;63628;47.656;11.310;2023-04-03T11:22:11;95316.31;;;3.47;69.14
75051;BME280;63628;47.656;11.310;2023-04-03T11:24:46;95316.22;;;3.41;67.51
75051;BME280;63628;47.656;11.310;2023-04-03T11:27:23;95304.53;;;3.66;68.77
75051;BME280;63628;47.656;11.310;2023-04-03T11:29:52;95313.91;;;3.61;68.15
75051;BME280;63628;47.656;11.310;2023-04-03T11:35:14;95315.44;;;3.55;70.02
75051;BME280;63628;47.656;11.310;2023-04-03T11:37:45;95319.69;;;3.56;70.64
75051;BME280;63628;47.656;11.310;2023-04-03T11:40:22;95307.09;;;3.37;69.39
75051;BME280;63628;47.656;11.310;2023-04-03T11:42:52;95301.31;;;3.41;70.41
75051;BME280;63628;47.656;11.310;2023-04-03T11:45:34;95304.41;;;3.45;71.19
75051;BME280;63628;47.656;11.310;2023-04-03T11:48:05;95307.31;;;3.50;71.12
75051;BME280;63628;47.656;11.310;2023-04-03T11:50:50;95299.06;;;3.38;70.87
75051;BME280;63628;47.656;11.310;2023-04-03T11:53:29;95301.47;;;3.63;71.96
75051;BME280;63628;47.656;11.310;2023-04-03T11:55:59;95299.78;;;3.70;70.61
75051;BME280;63628;47.656;11.310;2023-04-03T11:58:27;95300.84;;;3.61;70.68
75051;BME280;63628;47.656;11.310;2023-04-03T12:00:56;95307.16;;;3.66;70.95
75051;BME280;63628;47.656;11.310;2023-04-03T12:06:59;95297.72;;;3.80;72.54
75051;BME280;63628;47.656;11.310;2023-04-03T12:12:34;95303.53;;;3.53;70.21
75051;BME280;63628;47.656;11.310;2023-04-03T12:15:22;95293.22;;;3.51;70.10
75051;BME280;63628;47.656;11.310;2023-04-03T12:17:49;95303.34;;;3.54;71.34
75051;BME280;63628;47.656;11.310;2023-04-03T12:20:57;95299.00;;;3.46;70.09
75051;BME280;63628;47.656;11.310;2023-04-03T12:23:30;95293.81;;;3.38;69.18
75051;BME280;63628;47.656;11.310;2023-04-03T12:26:18;95299.88;;;3.39;68.80
75051;BME280;63628;47.656;11.310;2023-04-03T12:28:46;95300.13;;;3.67;69.91
75051;BME280;63628;47.656;11.310;2023-04-03T12:31:13;95294.22;;;3.50;68.09
75051;BME280;63628;47.656;11.310;2023-04-03T12:33:57;95291.44;;;3.52;69.25
75051;BME280;63628;47.656;11.310;2023-04-03T12:36:33;95300.84;;;3.61;70.29
75051;BME280;63628;47.656;11.310;2023-04-03T12:39:25;95289.09;;;3.57;69.66
75051;BME280;63628;47.656;11.310;2023-04-03T12:42:09;95294.53;;;3.70;69.20
75051;BME280;63628;47.656;11.310;2023-04-03T12:44:51;95291.41;;;3.89;69.09
75051;BME280;63628;47.656;11.310;2023-04-03T12:47:27;95282.81;;;3.80;68.51
75051;BME280;63628;47.656;11.310;2023-04-03T12:49:55;95284.84;;;3.93;69.19
75051;BME280;63628;47.656;11.310;2023-04-03T12:52:32;95278.91;;;3.99;69.57
75051;BME280;63628;47.656;11.310;2023-04-03T12:55:02;95280.25;;;4.10;70.31
75051;BME280;63628;47.656;11.310;2023-04-03T12:57:30;95275.28;;;4.15;70.45
75051;BME280;63628;47.656;11.310;2023-04-03T12:59:59;95281.97;;;4.18;69.85
75051;BME280;63628;47.656;11.310;2023-04-03T13:02:28;95280.69;;;3.99;69.99
75051;BME280;63628;47.656;11.310;2023-04-03T13:04:57;95280.88;;;4.56;68.51
75051;BME280;63628;47.656;11.310;2023-04-03T13:07:28;95276.38;;;4.35;70.92
75051;BME280;63628;47.656;11.310;2023-04-03T13:09:59;95281.69;;;3.98;67.78
75051;BME280;63628;47.656;11.310;2023-04-03T13:12:27;95275.97;;;3.79;70.72
75051;BME280;63628;47.656;11.310;2023-04-03T13:14:58;95287.81;;;3.53;71.96
75051;BME280;63628;47.656;11.310;2023-04-03T13:17:26;95282.25;;;3.56;71.07
75051;BME280;63628;47.656;11.310;2023-04-03T13:19:54;95288.53;;;3.46;71.90
75051;BME280;63628;47.656;11.310;2023-04-03T13:22:27;95291.44;;;3.52;71.16